sensor_id;sensor_type;location;lat;lon;timestamp;pressure;altitude;pressure_sealevel;temperature;humidity
60337;BME280;46978;50.288;28.624;2023-03-14T00:00:41;98631.92;;;3.40;57.18
60337;BME280;46978;50.288;28.624;2023-03-14T00:01:47;98629.36;;;3.40;57.37
60337;BME280;46978;50.288;28.624;2023-03-14T00:02:53;98636.21;;;3.39;57.43
60337;BME280;46978;50.288;28.624;2023-03-14T00:03:55;98632.77;;;3.37;57.61
60337;BME280;46978;50.288;28.624;2023-03-14T00:04:56;98629.36;;;3.37;57.64
60337;BME280;46978;50.288;28.624;2023-03-14T00:06:03;98630.20;;;3.36;57.76
60337;BME280;46978;50.288;28.624;2023-03-14T00:07:05;98629.36;;;3.34;57.69
60337;BME280;46978;50.288;28.624;2023-03-14T00:08:07;98624.23;;;3.34;57.78
60337;BME280;46978;50.288;28.624;2023-03-14T00:09:09;98622.52;;;3.33;57.99
60337;BME280;46978;50.288;28.624;2023-03-14T00:10:13;98619.95;;;3.31;58.12
60337;BME280;46978;50.288;28.624;2023-03-14T00:11:18;98615.70;;;3.30;58.04
60337;BME280;46978;50.288;28.624;2023-03-14T00:12:20;98619.95;;;3.30;58.32
60337;BME280;46978;50.288;28.624;2023-03-14T00:13:22;98613.14;;;3.27;58.29
60337;BME280;46978;50.288;28.624;2023-03-14T00:14:24;98613.14;;;3.27;58.29
60337;BME280;46978;50.288;28.624;2023-03-14T00:15:25;98611.42;;;3.28;58.29
60337;BME280;46978;50.288;28.624;2023-03-14T00:16:27;98617.39;;;3.28;58.41
60337;BME280;46978;50.288;28.624;2023-03-14T00:17:30;98613.14;;;3.27;58.44
60337;BME280;46978;50.288;28.624;2023-03-14T00:18:32;98615.70;;;3.26;58.45
60337;BME280;46978;50.288;28.624;2023-03-14T00:19:33;98616.55;;;3.25;58.58
60337;BME280;46978;50.288;28.624;2023-03-14T00:20:35;98610.58;;;3.22;58.71
60337;BME280;46978;50.288;28.624;2023-03-14T00:21:37;98612.27;;;3.22;58.71
60337;BME280;46978;50.288;28.624;2023-03-14T00:22:39;98616.55;;;3.21;58.80
60337;BME280;46978;50.288;28.624;2023-03-14T00:23:42;98617.40;;;3.20;58.96
60337;BME280;46978;50.288;28.624;2023-03-14T00:24:44;98605.45;;;3.16;59.22
60337;BME280;46978;50.288;28.624;2023-03-14T00:25:46;98605.45;;;3.16;59.22
60337;BME280;46978;50.288;28.624;2023-03-14T00:26:47;98614.84;;;3.17;59.09
60337;BME280;46978;50.288;28.624;2023-03-14T00:27:50;98615.71;;;3.18;59.05
60337;BME280;46978;50.288;28.624;2023-03-14T00:28:53;98611.43;;;3.17;59.15
60337;BME280;46978;50.288;28.624;2023-03-14T00:29:55;98611.43;;;3.15;59.38
60337;BME280;46978;50.288;28.624;2023-03-14T00:30:57;98611.43;;;3.15;59.38
60337;BME280;46978;50.288;28.624;2023-03-14T00:31:58;98611.43;;;3.14;59.53
60337;BME280;46978;50.288;28.624;2023-03-14T00:33:00;98613.15;;;3.15;59.48
60337;BME280;46978;50.288;28.624;2023-03-14T00:34:02;98603.73;;;3.14;59.55
60337;BME280;46978;50.288;28.624;2023-03-14T00:35:04;98608.02;;;3.13;59.47
60337;BME280;46978;50.288;28.624;2023-03-14T00:36:09;98608.87;;;3.14;59.45
60337;BME280;46978;50.288;28.624;2023-03-14T00:37:11;98611.43;;;3.14;59.42
60337;BME280;46978;50.288;28.624;2023-03-14T00:38:12;98602.90;;;3.13;59.23
60337;BME280;46978;50.288;28.624;2023-03-14T00:39:14;98602.90;;;3.13;59.23
60337;BME280;46978;50.288;28.624;2023-03-14T00:40:16;98613.99;;;3.15;59.52
60337;BME280;46978;50.288;28.624;2023-03-14T00:41:21;98611.43;;;3.14;59.82
60337;BME280;46978;50.288;28.624;2023-03-14T00:42:23;98604.58;;;3.13;59.79
60337;BME280;46978;50.288;28.624;2023-03-14T00:43:24;98612.27;;;3.11;59.91
60337;BME280;46978;50.288;28.624;2023-03-14T00:44:26;98612.27;;;3.11;59.87
60337;BME280;46978;50.288;28.624;2023-03-14T00:45:28;98616.55;;;3.11;60.00
60337;BME280;46978;50.288;28.624;2023-03-14T00:46:29;98613.15;;;3.10;60.07
60337;BME280;46978;50.288;28.624;2023-03-14T00:47:31;98608.87;;;3.09;60.07
60337;BME280;46978;50.288;28.624;2023-03-14T00:48:33;98613.15;;;3.09;60.19
60337;BME280;46978;50.288;28.624;2023-03-14T00:49:35;98610.59;;;3.09;60.19
60337;BME280;46978;50.288;28.624;2023-03-14T00:50:37;98613.99;;;3.09;60.16
60337;BME280;46978;50.288;28.624;2023-03-14T00:51:39;98607.14;;;3.08;60.26
60337;BME280;46978;50.288;28.624;2023-03-14T00:52:40;98605.46;;;3.09;60.27
60337;BME280;46978;50.288;28.624;2023-03-14T00:53:43;98608.02;;;3.09;60.30
60337;BME280;46978;50.288;28.624;2023-03-14T00:54:44;98601.18;;;3.08;60.55
60337;BME280;46978;50.288;28.624;2023-03-14T00:55:46;98596.05;;;3.08;60.55
60337;BME280;46978;50.288;28.624;2023-03-14T00:56:48;98596.05;;;3.08;60.67
60337;BME280;46978;50.288;28.624;2023-03-14T00:57:49;98594.33;;;3.07;60.63
60337;BME280;46978;50.288;28.624;2023-03-14T00:58:55;98599.45;;;3.07;60.62
60337;BME280;46978;50.288;28.624;2023-03-14T00:59:56;98595.20;;;3.09;60.72
60337;BME280;46978;50.288;28.624;2023-03-14T01:00:58;98594.33;;;3.08;60.71
60337;BME280;46978;50.288;28.624;2023-03-14T01:02:00;98582.39;;;3.07;60.91
60337;BME280;46978;50.288;28.624;2023-03-14T01:03:02;98579.83;;;3.09;60.97
60337;BME280;46978;50.288;28.624;2023-03-14T01:04:03;98572.98;;;3.08;60.84
60337;BME280;46978;50.288;28.624;2023-03-14T01:05:06;98572.98;;;3.08;60.84
60337;BME280;46978;50.288;28.624;2023-03-14T01:06:14;98572.14;;;3.12;61.20
60337;BME280;46978;50.288;28.624;2023-03-14T01:07:16;98579.83;;;3.12;61.10
60337;BME280;46978;50.288;28.624;2023-03-14T01:08:18;98575.55;;;3.14;61.22
60337;BME280;46978;50.288;28.624;2023-03-14T01:09:19;98570.41;;;3.14;61.19
60337;BME280;46978;50.288;28.624;2023-03-14T01:10:21;98567.01;;;3.15;61.16
60337;BME280;46978;50.288;28.624;2023-03-14T01:11:29;98568.69;;;3.16;61.35
60337;BME280;46978;50.288;28.624;2023-03-14T01:12:31;98567.85;;;3.15;61.40
60337;BME280;46978;50.288;28.624;2023-03-14T01:13:33;98572.13;;;3.15;61.69
60337;BME280;46978;50.288;28.624;2023-03-14T01:14:34;98563.57;;;3.14;61.50
60337;BME280;46978;50.288;28.624;2023-03-14T01:15:37;98570.41;;;3.15;61.54
60337;BME280;46978;50.288;28.624;2023-03-14T01:16:39;98567.85;;;3.15;61.66
60337;BME280;46978;50.288;28.624;2023-03-14T01:17:41;98569.56;;;3.16;61.76
60337;BME280;46978;50.288;28.624;2023-03-14T01:18:44;98574.70;;;3.16;61.83
60337;BME280;46978;50.288;28.624;2023-03-14T01:19:45;98567.84;;;3.17;61.91
60337;BME280;46978;50.288;28.624;2023-03-14T01:20:47;98575.54;;;3.17;62.09
60337;BME280;46978;50.288;28.624;2023-03-14T01:21:49;98578.10;;;3.15;62.29
60337;BME280;46978;50.288;28.624;2023-03-14T01:22:50;98577.27;;;3.15;62.29
60337;BME280;46978;50.288;28.624;2023-03-14T01:23:53;98582.39;;;3.15;62.46
60337;BME280;46978;50.288;28.624;2023-03-14T01:24:56;98585.80;;;3.15;62.32
60337;BME280;46978;50.288;28.624;2023-03-14T01:25:57;98586.64;;;3.14;62.39
60337;BME280;46978;50.288;28.624;2023-03-14T01:26:59;98589.20;;;3.16;62.40
60337;BME280;46978;50.288;28.624;2023-03-14T01:28:01;98586.64;;;3.16;62.69
60337;BME280;46978;50.288;28.624;2023-03-14T01:29:02;98584.08;;;3.16;62.79
60337;BME280;46978;50.288;28.624;2023-03-14T01:30:05;98587.52;;;3.15;62.88
60337;BME280;46978;50.288;28.624;2023-03-14T01:31:09;98586.64;;;3.16;62.78
60337;BME280;46978;50.288;28.624;2023-03-14T01:32:11;98589.20;;;3.14;62.86
60337;BME280;46978;50.288;28.624;2023-03-14T01:33:12;98590.92;;;3.14;63.13
60337;BME280;46978;50.288;28.624;2023-03-14T01:34:14;98591.77;;;3.13;63.18
60337;BME280;46978;50.288;28.624;2023-03-14T01:35:16;98580.67;;;3.12;63.28
60337;BME280;46978;50.288;28.624;2023-03-14T01:36:18;98590.08;;;3.12;63.23
60337;BME280;46978;50.288;28.624;2023-03-14T01:37:20;98579.83;;;3.07;63.27
60337;BME280;46978;50.288;28.624;2023-03-14T01:38:21;98590.92;;;3.11;63.34
60337;BME280;46978;50.288;28.624;2023-03-14T01:39:23;98592.64;;;3.12;63.48
60337;BME280;46978;50.288;28.624;2023-03-14T01:40:25;98587.52;;;3.10;63.58
60337;BME280;46978;50.288;28.624;2023-03-14T01:41:26;98585.80;;;3.11;63.60
60337;BME280;46978;50.288;28.624;2023-03-14T01:42:28;98591.77;;;3.10;63.67
60337;BME280;46978;50.288;28.624;2023-03-14T01:43:30;98590.08;;;3.09;63.78
60337;BME280;46978;50.288;28.624;2023-03-14T01:44:55;98590.92;;;3.08;63.80
60337;BME280;46978;50.288;28.624;2023-03-14T01:47:08;98596.05;;;3.08;63.89
60337;BME280;46978;50.288;28.624;2023-03-14T01:48:10;98605.46;;;3.07;64.16
60337;BME280;46978;50.288;28.624;2023-03-14T01:49:29;98599.45;;;3.07;63.95
60337;BME280;46978;50.288;28.624;2023-03-14T01:50:41;98596.05;;;3.06;63.94
60337;BME280;46978;50.288;28.624;2023-03-14T01:51:59;98591.77;;;3.08;64.08
60337;BME280;46978;50.288;28.624;2023-03-14T01:53:00;98594.33;;;3.07;64.29
60337;BME280;46978;50.288;28.624;2023-03-14T01:54:11;98589.20;;;3.05;64.41
60337;BME280;46978;50.288;28.624;2023-03-14T01:55:15;98592.64;;;3.04;64.39
60337;BME280;46978;50.288;28.624;2023-03-14T01:56:19;98583.23;;;3.01;64.77
60337;BME280;46978;50.288;28.624;2023-03-14T01:57:33;98586.64;;;2.99;64.58
60337;BME280;46978;50.288;28.624;2023-03-14T01:58:35;98598.62;;;2.97;64.71
60337;BME280;46978;50.288;28.624;2023-03-14T01:59:40;98584.08;;;2.97;64.72
60337;BME280;46978;50.288;28.624;2023-03-14T02:00:43;98586.64;;;2.96;64.87
60337;BME280;46978;50.288;28.624;2023-03-14T02:03:02;98589.20;;;2.91;64.98
60337;BME280;46978;50.288;28.624;2023-03-14T02:04:05;98590.08;;;2.90;65.18
60337;BME280;46978;50.288;28.624;2023-03-14T02:05:09;98583.23;;;2.87;65.20
60337;BME280;46978;50.288;28.624;2023-03-14T02:06:13;98587.52;;;2.85;65.35
60337;BME280;46978;50.288;28.624;2023-03-14T02:07:25;98592.64;;;2.84;65.54
60337;BME280;46978;50.288;28.624;2023-03-14T02:08:25;98590.08;;;2.81;65.71
60337;BME280;46978;50.288;28.624;2023-03-14T02:09:30;98583.23;;;2.78;65.89
60337;BME280;46978;50.288;28.624;2023-03-14T02:10:35;98594.33;;;2.77;66.03
60337;BME280;46978;50.288;28.624;2023-03-14T02:11:38;98590.91;;;2.74;65.93
60337;BME280;46978;50.288;28.624;2023-03-14T02:12:40;98584.95;;;2.73;66.02
60337;BME280;46978;50.288;28.624;2023-03-14T02:13:42;98595.20;;;2.72;66.16
60337;BME280;46978;50.288;28.624;2023-03-14T02:14:43;98590.91;;;2.69;66.28
60337;BME280;46978;50.288;28.624;2023-03-14T02:15:45;98595.19;;;2.67;66.22
60337;BME280;46978;50.288;28.624;2023-03-14T02:16:47;98589.19;;;2.65;66.34
60337;BME280;46978;50.288;28.624;2023-03-14T02:17:49;98584.09;;;2.63;66.49
60337;BME280;46978;50.288;28.624;2023-03-14T02:18:51;98591.78;;;2.62;66.54
60337;BME280;46978;50.288;28.624;2023-03-14T02:22:42;98585.77;;;2.52;67.25
60337;BME280;46978;50.288;28.624;2023-03-14T02:26:28;98588.32;;;2.47;67.53
60337;BME280;46978;50.288;28.624;2023-03-14T02:27:13;98591.75;;;2.45;67.74
60337;BME280;46978;50.288;28.624;2023-03-14T02:28:16;98591.75;;;2.43;68.10
60337;BME280;46978;50.288;28.624;2023-03-14T02:29:19;98589.18;;;2.42;68.00
60337;BME280;46978;50.288;28.624;2023-03-14T02:30:25;98583.19;;;2.40;68.04
60337;BME280;46978;50.288;28.624;2023-03-14T02:31:26;98578.94;;;2.39;68.43
60337;BME280;46978;50.288;28.624;2023-03-14T02:32:32;98584.89;;;2.38;68.34
60337;BME280;46978;50.288;28.624;2023-03-14T02:33:35;98581.48;;;2.37;68.48
60337;BME280;46978;50.288;28.624;2023-03-14T02:34:38;98584.05;;;2.36;68.54
60337;BME280;46978;50.288;28.624;2023-03-14T02:35:46;98576.36;;;2.34;68.66
60337;BME280;46978;50.288;28.624;2023-03-14T02:36:48;98585.73;;;2.33;68.91
60337;BME280;46978;50.288;28.624;2023-03-14T02:38:07;98574.64;;;2.31;68.99
60337;BME280;46978;50.288;28.624;2023-03-14T02:39:11;98578.92;;;2.31;69.17
60337;BME280;46978;50.288;28.624;2023-03-14T02:40:13;98576.35;;;2.29;69.33
60337;BME280;46978;50.288;28.624;2023-03-14T02:41:16;98572.91;;;2.27;69.50
60337;BME280;46978;50.288;28.624;2023-03-14T02:42:18;98575.47;;;2.26;69.49
60337;BME280;46978;50.288;28.624;2023-03-14T02:43:21;98570.34;;;2.24;69.73
60337;BME280;46978;50.288;28.624;2023-03-14T02:44:22;98562.66;;;2.23;70.03
60337;BME280;46978;50.288;28.624;2023-03-14T02:46:42;98568.66;;;2.22;70.05
60337;BME280;46978;50.288;28.624;2023-03-14T02:47:50;98566.09;;;2.20;70.07
60337;BME280;46978;50.288;28.624;2023-03-14T02:49:03;98566.93;;;2.19;70.26
60337;BME280;46978;50.288;28.624;2023-03-14T02:50:18;98560.97;;;2.19;70.37
60337;BME280;46978;50.288;28.624;2023-03-14T02:51:12;98561.81;;;2.19;70.37
60337;BME280;46978;50.288;28.624;2023-03-14T02:52:15;98566.08;;;2.17;70.57
60337;BME280;46978;50.288;28.624;2023-03-14T02:53:20;98560.09;;;2.17;70.80
60337;BME280;46978;50.288;28.624;2023-03-14T02:54:22;98563.52;;;2.15;70.70
60337;BME280;46978;50.288;28.624;2023-03-14T02:55:24;98560.08;;;2.15;70.70
60337;BME280;46978;50.288;28.624;2023-03-14T02:56:26;98567.75;;;2.13;70.87
60337;BME280;46978;50.288;28.624;2023-03-14T02:57:28;98568.63;;;2.12;71.11
60337;BME280;46978;50.288;28.624;2023-03-14T02:58:31;98568.63;;;2.11;71.07
60337;BME280;46978;50.288;28.624;2023-03-14T02:59:33;98569.47;;;2.11;71.15
60337;BME280;46978;50.288;28.624;2023-03-14T03:00:34;98566.91;;;2.11;71.23
60337;BME280;46978;50.288;28.624;2023-03-14T03:01:36;98568.63;;;2.11;71.17
60337;BME280;46978;50.288;28.624;2023-03-14T03:02:38;98571.18;;;2.11;71.18
60337;BME280;46978;50.288;28.624;2023-03-14T03:03:39;98569.47;;;2.10;71.32
60337;BME280;46978;50.288;28.624;2023-03-14T03:05:00;98572.02;;;2.10;71.42
60337;BME280;46978;50.288;28.624;2023-03-14T03:06:02;98560.94;;;2.08;71.44
60337;BME280;46978;50.288;28.624;2023-03-14T03:07:03;98560.94;;;2.06;71.51
60337;BME280;46978;50.288;28.624;2023-03-14T03:08:05;98563.50;;;2.08;71.56
60337;BME280;46978;50.288;28.624;2023-03-14T03:09:07;98564.34;;;2.07;71.62
60337;BME280;46978;50.288;28.624;2023-03-14T03:10:10;98560.94;;;2.06;71.76
60337;BME280;46978;50.288;28.624;2023-03-14T03:11:12;98554.09;;;2.05;71.79
60337;BME280;46978;50.288;28.624;2023-03-14T03:12:13;98561.77;;;2.04;72.12
60337;BME280;46978;50.288;28.624;2023-03-14T03:13:15;98554.93;;;2.03;72.15
60337;BME280;46978;50.288;28.624;2023-03-14T03:14:17;98560.91;;;2.02;72.15
60337;BME280;46978;50.288;28.624;2023-03-14T03:15:18;98566.03;;;2.00;72.58
60337;BME280;46978;50.288;28.624;2023-03-14T03:16:20;98563.47;;;1.99;72.60
60337;BME280;46978;50.288;28.624;2023-03-14T03:17:22;98557.47;;;1.96;72.86
60337;BME280;46978;50.288;28.624;2023-03-14T03:18:23;98553.22;;;1.95;72.65
60337;BME280;46978;50.288;28.624;2023-03-14T03:19:25;98555.78;;;1.95;72.98
60337;BME280;46978;50.288;28.624;2023-03-14T03:20:27;98548.94;;;1.94;72.96
60337;BME280;46978;50.288;28.624;2023-03-14T03:21:28;98553.22;;;1.95;72.81
60337;BME280;46978;50.288;28.624;2023-03-14T03:22:30;98553.22;;;1.95;72.84
60337;BME280;46978;50.288;28.624;2023-03-14T03:23:31;98558.34;;;1.95;72.93
60337;BME280;46978;50.288;28.624;2023-03-14T03:24:33;98544.67;;;1.95;72.94
60337;BME280;46978;50.288;28.624;2023-03-14T03:25:35;98547.23;;;1.95;73.03
60337;BME280;46978;50.288;28.624;2023-03-14T03:26:37;98542.11;;;1.95;73.22
60337;BME280;46978;50.288;28.624;2023-03-14T03:27:38;98545.54;;;1.94;73.33
60337;BME280;46978;50.288;28.624;2023-03-14T03:28:40;98531.02;;;1.91;73.15
60337;BME280;46978;50.288;28.624;2023-03-14T03:29:42;98531.87;;;1.92;73.20
60337;BME280;46978;50.288;28.624;2023-03-14T03:30:44;98524.19;;;1.90;73.86
60337;BME280;46978;50.288;28.624;2023-03-14T03:31:45;98531.02;;;1.88;73.79
60337;BME280;46978;50.288;28.624;2023-03-14T03:32:47;98531.85;;;1.87;73.62
60337;BME280;46978;50.288;28.624;2023-03-14T03:33:49;98526.73;;;1.86;73.73
60337;BME280;46978;50.288;28.624;2023-03-14T03:34:51;98520.77;;;1.84;73.96
60337;BME280;46978;50.288;28.624;2023-03-14T03:35:53;98520.77;;;1.82;73.90
60337;BME280;46978;50.288;28.624;2023-03-14T03:36:58;98513.08;;;1.81;73.86
60337;BME280;46978;50.288;28.624;2023-03-14T03:37:59;98511.36;;;1.79;74.19
60337;BME280;46978;50.288;28.624;2023-03-14T03:39:01;98505.39;;;1.76;74.46
60337;BME280;46978;50.288;28.624;2023-03-14T03:40:03;98505.39;;;1.76;74.46
60337;BME280;46978;50.288;28.624;2023-03-14T03:41:06;98507.10;;;1.74;74.29
60337;BME280;46978;50.288;28.624;2023-03-14T03:42:08;98506.20;;;1.69;74.66
60337;BME280;46978;50.288;28.624;2023-03-14T03:43:10;98506.20;;;1.69;74.66
60337;BME280;46978;50.288;28.624;2023-03-14T03:44:11;98505.37;;;1.70;74.76
60337;BME280;46978;50.288;28.624;2023-03-14T03:45:13;98515.59;;;1.68;74.59
60337;BME280;46978;50.288;28.624;2023-03-14T03:46:15;98518.14;;;1.67;74.71
60337;BME280;46978;50.288;28.624;2023-03-14T03:47:16;98524.09;;;1.66;74.63
60337;BME280;46978;50.288;28.624;2023-03-14T03:48:18;98519.84;;;1.63;74.73
60337;BME280;46978;50.288;28.624;2023-03-14T03:49:20;98526.64;;;1.63;74.87
60337;BME280;46978;50.288;28.624;2023-03-14T03:50:21;98526.64;;;1.61;74.80
60337;BME280;46978;50.288;28.624;2023-03-14T03:51:23;98524.07;;;1.59;75.08
60337;BME280;46978;50.288;28.624;2023-03-14T03:52:25;98525.78;;;1.57;75.07
60337;BME280;46978;50.288;28.624;2023-03-14T03:53:27;98525.78;;;1.57;75.07
60337;BME280;46978;50.288;28.624;2023-03-14T03:54:29;98523.21;;;1.56;75.00
60337;BME280;46978;50.288;28.624;2023-03-14T03:55:30;98519.80;;;1.54;75.07
60337;BME280;46978;50.288;28.624;2023-03-14T03:56:32;98522.36;;;1.52;75.27
60337;BME280;46978;50.288;28.624;2023-03-14T03:57:34;98525.75;;;1.51;75.30
60337;BME280;46978;50.288;28.624;2023-03-14T03:58:35;98520.64;;;1.51;75.48
60337;BME280;46978;50.288;28.624;2023-03-14T03:59:37;98520.63;;;1.48;75.56
60337;BME280;46978;50.288;28.624;2023-03-14T04:00:39;98518.91;;;1.47;75.76
60337;BME280;46978;50.288;28.624;2023-03-14T04:01:41;98510.38;;;1.45;76.03
60337;BME280;46978;50.288;28.624;2023-03-14T04:02:42;98501.86;;;1.43;75.99
60337;BME280;46978;50.288;28.624;2023-03-14T04:03:44;98501.85;;;1.41;75.97
60337;BME280;46978;50.288;28.624;2023-03-14T04:04:46;98503.53;;;1.41;76.39
60337;BME280;46978;50.288;28.624;2023-03-14T04:05:59;98500.14;;;1.40;76.24
60337;BME280;46978;50.288;28.624;2023-03-14T04:07:00;98493.30;;;1.38;76.18
60337;BME280;46978;50.288;28.624;2023-03-14T04:08:04;98489.06;;;1.38;76.41
60337;BME280;46978;50.288;28.624;2023-03-14T04:09:06;98489.06;;;1.38;76.41
60337;BME280;46978;50.288;28.624;2023-03-14T04:10:08;98495.01;;;1.37;76.09
60337;BME280;46978;50.288;28.624;2023-03-14T04:11:10;98499.28;;;1.37;76.14
60337;BME280;46978;50.288;28.624;2023-03-14T04:12:12;98500.95;;;1.36;76.25
60337;BME280;46978;50.288;28.624;2023-03-14T04:13:14;98502.66;;;1.34;76.41
60337;BME280;46978;50.288;28.624;2023-03-14T04:14:15;98501.81;;;1.34;76.46
60337;BME280;46978;50.288;28.624;2023-03-14T04:15:17;98500.94;;;1.33;76.54
60337;BME280;46978;50.288;28.624;2023-03-14T04:16:24;98500.94;;;1.33;76.60
60337;BME280;46978;50.288;28.624;2023-03-14T04:17:26;98499.25;;;1.32;76.64
60337;BME280;46978;50.288;28.624;2023-03-14T04:18:28;98500.97;;;1.32;76.76
60337;BME280;46978;50.288;28.624;2023-03-14T04:19:30;98490.74;;;1.32;76.67
60337;BME280;46978;50.288;28.624;2023-03-14T04:20:34;98494.98;;;1.31;76.59
60337;BME280;46978;50.288;28.624;2023-03-14T04:21:36;98498.41;;;1.32;76.57
60337;BME280;46978;50.288;28.624;2023-03-14T04:22:38;98500.08;;;1.30;76.82
60337;BME280;46978;50.288;28.624;2023-03-14T04:23:40;98500.95;;;1.30;76.78
60337;BME280;46978;50.288;28.624;2023-03-14T04:24:42;98503.51;;;1.29;76.78
60337;BME280;46978;50.288;28.624;2023-03-14T04:25:44;98495.83;;;1.27;76.77
60337;BME280;46978;50.288;28.624;2023-03-14T04:26:45;98497.52;;;1.27;76.72
60337;BME280;46978;50.288;28.624;2023-03-14T04:27:47;98505.17;;;1.27;76.76
60337;BME280;46978;50.288;28.624;2023-03-14T04:28:49;98503.48;;;1.25;76.89
60337;BME280;46978;50.288;28.624;2023-03-14T04:29:51;98503.48;;;1.25;76.89
60337;BME280;46978;50.288;28.624;2023-03-14T04:30:53;98498.38;;;1.25;77.17
60337;BME280;46978;50.288;28.624;2023-03-14T04:31:54;98502.60;;;1.23;77.11
60337;BME280;46978;50.288;28.624;2023-03-14T04:32:56;98503.48;;;1.25;77.03
60337;BME280;46978;50.288;28.624;2023-03-14T04:33:57;98502.61;;;1.25;76.94
60337;BME280;46978;50.288;28.624;2023-03-14T04:34:59;98497.50;;;1.25;76.95
60337;BME280;46978;50.288;28.624;2023-03-14T04:36:01;98500.94;;;1.25;77.18
60337;BME280;46978;50.288;28.624;2023-03-14T04:37:03;98498.38;;;1.25;76.97
60337;BME280;46978;50.288;28.624;2023-03-14T04:38:04;98499.22;;;1.26;77.06
60337;BME280;46978;50.288;28.624;2023-03-14T04:39:06;98506.90;;;1.28;77.03
60337;BME280;46978;50.288;28.624;2023-03-14T04:40:09;98503.51;;;1.29;77.09
60337;BME280;46978;50.288;28.624;2023-03-14T04:41:11;98497.52;;;1.28;77.02
60337;BME280;46978;50.288;28.624;2023-03-14T04:42:13;98494.12;;;1.28;77.12
60337;BME280;46978;50.288;28.624;2023-03-14T04:43:15;98496.67;;;1.28;77.12
60337;BME280;46978;50.288;28.624;2023-03-14T04:44:16;98491.57;;;1.29;77.12
60337;BME280;46978;50.288;28.624;2023-03-14T04:45:18;98492.41;;;1.30;77.07
60337;BME280;46978;50.288;28.624;2023-03-14T04:46:20;98496.69;;;1.31;76.95
60337;BME280;46978;50.288;28.624;2023-03-14T04:47:22;98503.52;;;1.32;77.03
60337;BME280;46978;50.288;28.624;2023-03-14T04:48:24;98497.54;;;1.33;77.08
60337;BME280;46978;50.288;28.624;2023-03-14T04:49:26;98496.70;;;1.34;76.90
60337;BME280;46978;50.288;28.624;2023-03-14T04:50:28;98500.95;;;1.35;76.81
60337;BME280;46978;50.288;28.624;2023-03-14T04:51:30;98495.84;;;1.36;76.84
60337;BME280;46978;50.288;28.624;2023-03-14T04:52:32;98500.96;;;1.38;76.75
60337;BME280;46978;50.288;28.624;2023-03-14T04:53:33;98489.91;;;1.39;76.75
60337;BME280;46978;50.288;28.624;2023-03-14T04:54:35;98494.17;;;1.40;76.85
60337;BME280;46978;50.288;28.624;2023-03-14T04:55:37;98489.91;;;1.40;76.71
60337;BME280;46978;50.288;28.624;2023-03-14T04:56:38;98489.08;;;1.41;76.69
60337;BME280;46978;50.288;28.624;2023-03-14T04:57:40;98489.91;;;1.42;76.56
60337;BME280;46978;50.288;28.624;2023-03-14T04:58:42;98484.81;;;1.43;76.35
60337;BME280;46978;50.288;28.624;2023-03-14T04:59:44;98493.32;;;1.44;76.47
60337;BME280;46978;50.288;28.624;2023-03-14T05:00:46;98481.42;;;1.45;76.34
60337;BME280;46978;50.288;28.624;2023-03-14T05:01:47;98495.05;;;1.45;76.27
60337;BME280;46978;50.288;28.624;2023-03-14T05:02:49;98496.77;;;1.46;76.23
60337;BME280;46978;50.288;28.624;2023-03-14T05:03:53;98483.09;;;1.41;76.28
60337;BME280;46978;50.288;28.624;2023-03-14T05:04:55;98491.66;;;1.48;76.19
60337;BME280;46978;50.288;28.624;2023-03-14T05:05:57;98494.22;;;1.48;76.26
60337;BME280;46978;50.288;28.624;2023-03-14T05:06:59;98492.50;;;1.48;76.19
60337;BME280;46978;50.288;28.624;2023-03-14T05:08:01;98495.91;;;1.50;76.08
60337;BME280;46978;50.288;28.624;2023-03-14T05:09:03;98497.63;;;1.51;76.02
60337;BME280;46978;50.288;28.624;2023-03-14T05:10:05;98504.45;;;1.52;75.89
60337;BME280;46978;50.288;28.624;2023-03-14T05:11:09;98501.04;;;1.55;75.97
60337;BME280;46978;50.288;28.624;2023-03-14T05:12:11;98495.93;;;1.56;75.73
60337;BME280;46978;50.288;28.624;2023-03-14T05:13:13;98498.50;;;1.59;75.71
60337;BME280;46978;50.288;28.624;2023-03-14T05:14:14;98504.50;;;1.61;75.74
60337;BME280;46978;50.288;28.624;2023-03-14T05:15:16;98502.79;;;1.64;75.43
60337;BME280;46978;50.288;28.624;2023-03-14T05:16:18;98506.20;;;1.66;75.38
60337;BME280;46978;50.288;28.624;2023-03-14T05:17:19;98501.09;;;1.69;75.15
60337;BME280;46978;50.288;28.624;2023-03-14T05:18:21;98499.42;;;1.72;75.10
60337;BME280;46978;50.288;28.624;2023-03-14T05:19:23;98501.11;;;1.75;74.97
60337;BME280;46978;50.288;28.624;2023-03-14T05:20:24;98504.55;;;1.77;75.01
60337;BME280;46978;50.288;28.624;2023-03-14T05:21:26;98503.69;;;1.81;74.88
60337;BME280;46978;50.288;28.624;2023-03-14T05:22:28;98505.42;;;1.84;74.53
60337;BME280;46978;50.288;28.624;2023-03-14T05:23:30;98507.15;;;1.88;74.19
60337;BME280;46978;50.288;28.624;2023-03-14T05:24:31;98504.59;;;1.89;74.18
60337;BME280;46978;50.288;28.624;2023-03-14T05:25:33;98498.61;;;1.93;74.25
60337;BME280;46978;50.288;28.624;2023-03-14T05:26:35;98508.85;;;1.96;73.87
60337;BME280;46978;50.288;28.624;2023-03-14T05:27:37;98509.73;;;1.99;73.81
60337;BME280;46978;50.288;28.624;2023-03-14T05:28:38;98505.47;;;2.01;73.77
60337;BME280;46978;50.288;28.624;2023-03-14T05:29:40;98509.75;;;2.03;73.79
60337;BME280;46978;50.288;28.624;2023-03-14T05:30:42;98511.44;;;2.04;73.69
60337;BME280;46978;50.288;28.624;2023-03-14T05:31:43;98503.76;;;2.04;73.68
60337;BME280;46978;50.288;28.624;2023-03-14T05:32:45;98502.91;;;2.05;73.60
60337;BME280;46978;50.288;28.624;2023-03-14T05:33:47;98500.36;;;2.07;73.55
60337;BME280;46978;50.288;28.624;2023-03-14T05:34:48;98498.64;;;2.06;73.65
60337;BME280;46978;50.288;28.624;2023-03-14T05:35:50;98502.08;;;2.08;73.44
60337;BME280;46978;50.288;28.624;2023-03-14T05:36:52;98501.20;;;2.10;73.43
60337;BME280;46978;50.288;28.624;2023-03-14T05:37:53;98496.97;;;2.12;73.32
60337;BME280;46978;50.288;28.624;2023-03-14T05:38:55;98499.53;;;2.15;73.19
60337;BME280;46978;50.288;28.624;2023-03-14T05:39:59;98496.11;;;2.18;73.13
60337;BME280;46978;50.288;28.624;2023-03-14T05:41:01;98499.55;;;2.23;72.87